createdAt,value
2018-08-22T00:00:37.064Z,21.50
2018-08-22T00:05:40.662Z,22.10
2018-08-22T00:10:44.263Z,22.30
2018-08-22T00:15:47.858Z,21.70
2018-08-22T00:20:51.447Z,22.20
2018-08-22T00:25:55.041Z,22.30
2018-08-22T00:30:58.664Z,22.40
2018-08-22T00:36:02.373Z,22.40
2018-08-22T00:41:06.182Z,22.00
2018-08-22T00:46:09.939Z,21.30
2018-08-22T00:51:13.537Z,21.50
2018-08-22T00:56:17.142Z,20.20
2018-08-22T01:01:20.676Z,21.30
2018-08-22T01:06:24.337Z,21.50
2018-08-22T01:11:27.947Z,21.70
2018-08-22T01:16:32.051Z,21.90
2018-08-22T01:21:36.385Z,21.80
2018-08-22T01:26:40.203Z,21.70
2018-08-22T01:31:45.514Z,21.70
2018-08-22T01:36:51.272Z,21.80
2018-08-22T01:41:58.269Z,21.90
2018-08-22T01:47:03.725Z,21.60
2018-08-22T01:52:09.032Z,21.60
2018-08-22T01:57:13.227Z,21.70
2018-08-22T02:02:17.429Z,21.80
2018-08-22T02:07:24.066Z,21.50
2018-08-22T02:12:29.612Z,21.70
2018-08-22T02:17:35.340Z,21.70
2018-08-22T02:22:39.043Z,21.60
2018-08-22T02:27:42.631Z,21.40
2018-08-22T02:32:46.233Z,21.60
2018-08-22T02:37:50.914Z,21.70
2018-08-22T02:42:54.832Z,21.70
2018-08-22T02:47:58.912Z,21.50
2018-08-22T02:53:02.830Z,21.60
2018-08-22T02:58:06.765Z,21.60
2018-08-22T03:03:11.512Z,21.40
2018-08-22T03:08:15.171Z,21.50
2018-08-22T03:13:18.811Z,21.40
2018-08-22T03:18:23.099Z,21.20
2018-08-22T03:23:28.838Z,21.30
2018-08-22T03:28:32.833Z,21.30
2018-08-22T03:33:37.468Z,21.20
2018-08-22T03:38:44.146Z,21.20
2018-08-22T03:43:49.974Z,21.10
2018-08-22T03:48:56.237Z,21.00
2018-08-22T03:54:00.585Z,21.10
2018-08-22T03:59:04.175Z,21.10
2018-08-22T04:04:08.247Z,21.10
2018-08-22T04:09:12.124Z,21.00
2018-08-22T04:14:15.748Z,20.90
2018-08-22T04:19:19.648Z,21.00
2018-08-22T04:24:25.329Z,20.70
2018-08-22T04:29:28.947Z,20.80
2018-08-22T04:34:34.126Z,20.70
2018-08-22T04:39:39.641Z,20.70
2018-08-22T04:44:44.126Z,20.80
2018-08-22T04:49:48.140Z,20.70
2018-08-22T04:54:52.229Z,20.80
2018-08-22T04:59:55.821Z,20.80
2018-08-22T05:05:00.605Z,20.90
2018-08-22T05:10:06.020Z,20.90
2018-08-22T05:15:10.027Z,21.20
2018-08-22T05:20:15.004Z,21.50
2018-08-22T05:25:19.259Z,21.60
2018-08-22T05:35:31.912Z,22.10
2018-08-22T05:40:35.500Z,22.10
2018-08-22T05:45:43.145Z,22.00
2018-08-22T05:50:47.171Z,22.30
2018-08-22T05:55:50.847Z,22.40
2018-08-22T06:00:54.703Z,22.70
2018-08-22T06:05:58.722Z,22.70
2018-08-22T06:11:02.386Z,23.10
2018-08-22T06:16:06.799Z,23.30
2018-08-22T06:21:11.006Z,23.40
2018-08-22T06:26:15.001Z,23.80
2018-08-22T06:31:18.845Z,24.00
2018-08-22T06:36:22.832Z,23.90
2018-08-22T06:41:28.634Z,24.30
2018-08-22T06:46:32.229Z,24.10
2018-08-22T06:51:35.993Z,24.20
2018-08-22T06:56:39.592Z,24.40
2018-08-22T07:01:43.527Z,23.70
2018-08-22T07:06:47.546Z,23.80
2018-08-22T07:11:51.405Z,23.80
2018-08-22T07:16:55.002Z,23.60
2018-08-22T07:22:02.702Z,23.80
2018-08-22T07:27:06.328Z,23.80
2018-08-22T07:32:10.038Z,23.80
2018-08-22T07:37:14.226Z,23.70
2018-08-22T07:42:18.576Z,23.70
2018-08-22T07:47:23.223Z,23.60
2018-08-22T07:52:26.946Z,23.90
2018-08-22T07:57:30.771Z,24.00
2018-08-22T08:02:34.373Z,23.90
2018-08-22T08:07:38.745Z,24.20
2018-08-22T08:12:43.754Z,24.20
2018-08-22T08:17:47.781Z,24.20
2018-08-22T08:22:51.477Z,24.10
2018-08-22T08:27:55.721Z,23.90
2018-08-22T08:33:00.820Z,24.10
2018-08-22T08:38:06.200Z,24.10
2018-08-22T08:43:11.036Z,24.20
2018-08-22T08:48:16.095Z,24.10
2018-08-22T08:53:20.586Z,24.20
2018-08-22T08:58:25.501Z,24.40
2018-08-22T09:03:30.238Z,24.50
2018-08-22T09:08:33.861Z,25.20
2018-08-22T09:13:53.123Z,24.90
2018-08-22T09:18:56.811Z,24.90
2018-08-22T09:24:00.495Z,25.00
2018-08-22T09:29:04.099Z,25.20
2018-08-22T09:34:07.760Z,25.50
2018-08-22T09:39:12.817Z,26.00
2018-08-22T09:44:16.576Z,26.00
2018-08-22T09:49:20.190Z,25.80
2018-08-22T09:54:23.843Z,25.70
2018-08-22T09:59:27.701Z,26.30
2018-08-22T10:04:33.098Z,26.30
2018-08-22T10:09:37.183Z,25.90
2018-08-22T10:14:41.237Z,25.90
2018-08-22T10:19:48.017Z,26.10
2018-08-22T10:24:54.136Z,26.50
2018-08-22T10:30:02.152Z,26.60
2018-08-22T10:35:06.693Z,26.60
2018-08-22T10:40:10.709Z,27.30
2018-08-22T10:45:16.396Z,26.70
2018-08-22T10:50:22.267Z,27.60
2018-08-22T10:55:27.384Z,27.50
2018-08-22T11:00:32.780Z,27.50
2018-08-22T11:05:37.977Z,27.20
2018-08-22T11:10:42.804Z,27.70
2018-08-22T11:15:47.745Z,26.80
2018-08-22T11:20:55.505Z,27.00
2018-08-22T11:26:11.823Z,26.90
2018-08-22T11:31:27.355Z,28.60
2018-08-22T11:36:30.866Z,28.40
2018-08-22T11:41:35.964Z,27.20
2018-08-22T11:46:42.408Z,28.50
2018-08-22T11:51:47.717Z,28.60
2018-08-22T11:56:52.687Z,28.60
2018-08-22T12:01:57.288Z,27.60
2018-08-22T12:07:01.230Z,27.90
2018-08-22T12:12:05.905Z,29.50
2018-08-22T12:17:11.118Z,28.70
2018-08-22T12:22:18.257Z,28.70
2018-08-22T12:27:23.003Z,28.40
2018-08-22T12:32:27.591Z,29.00
2018-08-22T12:37:33.404Z,29.20
2018-08-22T12:42:39.711Z,31.00
2018-08-22T12:47:45.853Z,29.20
2018-08-22T12:52:50.657Z,29.20
2018-08-22T12:57:56.379Z,28.50
2018-08-22T13:03:01.681Z,29.60
2018-08-22T13:08:06.226Z,29.20
2018-08-22T13:13:09.893Z,28.90
2018-08-22T13:18:13.510Z,29.50
2018-08-22T13:23:17.097Z,29.60
2018-08-22T13:28:20.789Z,29.50
2018-08-22T13:33:24.570Z,30.20
2018-08-22T13:38:28.223Z,29.40
2018-08-22T13:43:32.519Z,29.00
2018-08-22T13:48:37.475Z,29.30
2018-08-22T13:53:43.201Z,29.00
2018-08-22T13:58:50.465Z,29.00
2018-08-22T14:03:56.940Z,30.50
2018-08-22T14:09:02.862Z,29.80
2018-08-22T14:14:07.675Z,29.00
2018-08-22T14:19:12.149Z,29.50
2018-08-22T14:24:16.097Z,29.40
2018-08-22T14:29:21.843Z,29.30
2018-08-22T14:34:27.701Z,29.30
2018-08-22T14:39:34.979Z,28.80
2018-08-22T14:44:40.790Z,29.40
2018-08-22T14:49:46.688Z,29.20
2018-08-22T14:54:52.014Z,28.50
2018-08-22T14:59:57.749Z,28.30
2018-08-22T15:05:02.376Z,28.30
2018-08-22T15:10:07.689Z,28.40
2018-08-22T15:15:11.345Z,28.20
2018-08-22T15:20:15.023Z,28.30
2018-08-22T15:25:18.640Z,28.50
2018-08-22T15:30:22.217Z,28.90
2018-08-22T15:35:25.768Z,28.40
2018-08-22T15:40:29.392Z,28.70
2018-08-22T15:45:33.026Z,28.60
2018-08-22T15:50:36.603Z,28.60
2018-08-22T15:55:40.192Z,28.40
2018-08-22T16:00:49.841Z,28.10
2018-08-22T16:05:54.559Z,28.40
2018-08-22T16:10:58.222Z,28.40
2018-08-22T16:16:03.846Z,28.50
2018-08-22T16:21:07.486Z,29.10
2018-08-22T16:26:11.965Z,28.50
2018-08-22T16:31:17.828Z,28.50
2018-08-22T16:36:28.422Z,28.20
2018-08-22T16:41:32.323Z,27.90
2018-08-22T16:46:37.373Z,28.00
2018-08-22T16:51:42.218Z,27.70
2018-08-22T16:56:48.248Z,27.80
2018-08-22T17:01:52.870Z,27.80
2018-08-22T17:07:01.266Z,27.50
2018-08-22T17:12:07.437Z,27.00
2018-08-22T17:17:15.665Z,27.30
2018-08-22T17:22:20.874Z,27.40
2018-08-22T17:27:24.538Z,27.10
2018-08-22T17:32:28.212Z,27.20
2018-08-22T17:37:31.800Z,27.20
2018-08-22T17:42:38.751Z,27.20
2018-08-22T17:47:43.316Z,27.20
2018-08-22T17:52:46.906Z,27.20
2018-08-22T17:57:51.631Z,29.30
2018-08-22T18:03:08.665Z,26.90
2018-08-22T18:08:13.437Z,26.60
2018-08-22T18:13:28.508Z,26.40
2018-08-22T18:40:24.366Z,26.50
2018-08-22T18:45:28.486Z,26.30
2018-08-22T18:50:32.150Z,25.80
2018-08-22T18:55:35.798Z,25.90
2018-08-22T19:00:39.432Z,25.90
2018-08-22T19:05:43.687Z,25.70
2018-08-22T19:10:49.821Z,25.60
2018-08-22T19:15:58.416Z,25.60
2018-08-22T19:21:03.693Z,25.50
2018-08-22T19:26:08.086Z,25.60
2018-08-22T19:31:11.741Z,25.60
2018-08-22T19:36:15.966Z,25.60
2018-08-22T19:41:36.383Z,25.50
2018-08-22T19:46:39.965Z,25.40
2018-08-22T19:51:43.582Z,25.20
2018-08-22T19:56:47.169Z,24.90
2018-08-22T20:01:50.757Z,24.80
2018-08-22T20:06:57.301Z,24.80
2018-08-22T20:12:02.326Z,24.50
2018-08-22T20:17:08.700Z,24.50
2018-08-22T20:22:14.597Z,24.40
2018-08-22T20:27:19.060Z,24.40
2018-08-22T20:32:29.396Z,24.20
2018-08-22T20:37:34.198Z,24.20
2018-08-22T20:42:38.675Z,24.00
2018-08-22T20:47:43.637Z,24.00
2018-08-22T20:52:49.323Z,24.00
2018-08-22T20:57:55.479Z,24.10
2018-08-22T21:03:03.816Z,24.00
2018-08-22T21:08:09.731Z,23.80
2018-08-22T21:13:18.887Z,23.70
2018-08-22T21:18:24.926Z,23.70
2018-08-22T21:23:30.906Z,23.60
2018-08-22T21:28:41.541Z,23.70
2018-08-22T21:33:45.136Z,23.70
2018-08-22T21:38:48.813Z,23.50
2018-08-22T21:43:52.492Z,23.50
2018-08-22T21:48:57.857Z,23.50
2018-08-22T21:54:01.461Z,23.50
2018-08-22T21:59:05.061Z,23.30
2018-08-22T22:04:13.664Z,23.50
2018-08-22T22:09:17.264Z,23.70
2018-08-22T22:14:25.854Z,23.50
2018-08-22T22:19:31.765Z,23.30
2018-08-22T22:24:55.039Z,23.30
2018-08-22T22:30:02.001Z,23.30
2018-08-22T22:35:05.549Z,23.40
2018-08-22T22:40:09.443Z,23.20
2018-08-22T22:45:13.183Z,23.20
2018-08-22T22:50:17.738Z,23.10
2018-08-22T22:55:21.375Z,22.80
2018-08-22T23:00:25.022Z,22.80
2018-08-22T23:05:30.964Z,22.60
2018-08-22T23:10:34.556Z,22.50
2018-08-22T23:15:38.184Z,22.50
2018-08-22T23:20:42.819Z,23.00
2018-08-22T23:25:46.457Z,22.90
2018-08-22T23:30:50.098Z,23.00
2018-08-22T23:35:53.648Z,22.70
2018-08-22T23:40:57.438Z,22.50
2018-08-22T23:46:01.065Z,21.50
2018-08-22T23:51:06.065Z,20.80
2018-08-22T23:56:18.348Z,21.40
